Time;durP1;ratioP1;P1;durP2;ratioP2;P2;SDS_P1;SDS_P2;PMS_P1;PMS_P2;Temp;Humidity;BMP_temperature;BMP_pressure;BME280_temperature;BME280_humidity;BME280_pressure;Samples;Min_cycle;Max_cycle;Signal;HPM_P1;HPM_P2
2021/03/22 00:03:36;;;;;;;27.17;6.30;;;;;;;7.24;46.73;98067.06;8345271;28;20638;-63
2021/03/22 00:07:39;;;;;;;22.50;6.80;;;;;;;7.27;46.50;98073.03;8351706;28;20230;-64
2021/03/22 00:11:41;;;;;;;25.93;6.07;;;;;;;7.08;46.57;98078.69;8363298;28;20228;-63
2021/03/22 00:15:44;;;;;;;23.37;6.20;;;;;;;7.05;47.23;98081.38;8363496;28;20234;-62
2021/03/22 00:19:46;;;;;;;18.90;5.83;;;;;;;7.23;46.35;98070.56;8363674;28;20548;-63
2021/03/22 00:23:48;;;;;;;21.33;5.87;;;;;;;7.25;46.57;98067.91;8363726;28;20199;-62
2021/03/22 00:27:50;;;;;;;26.80;6.37;;;;;;;7.19;46.32;98068.09;8363326;28;20252;-63
2021/03/22 00:31:53;;;;;;;27.90;6.60;;;;;;;7.26;46.24;98063.63;8363270;28;20200;-62
2021/03/22 00:35:55;;;;;;;21.20;6.07;;;;;;;7.24;46.34;98067.06;8351982;28;20211;-62
2021/03/22 00:39:57;;;;;;;25.37;6.33;;;;;;;7.26;46.58;98059.31;8330108;28;20274;-63
2021/03/22 00:43:59;;;;;;;21.47;6.33;;;;;;;7.28;46.88;98059.25;8329820;28;20204;-63
2021/03/22 00:48:02;;;;;;;24.07;6.37;;;;;;;7.27;46.80;98055.81;8329992;28;20687;-63
2021/03/22 00:52:06;;;;;;;25.17;5.87;;;;;;;7.20;46.73;98056.91;8329956;28;20231;-62
2021/03/22 00:56:08;;;;;;;26.10;6.93;;;;;;;7.15;47.13;98051.88;8329904;28;20285;-62
2021/03/22 01:00:18;;;;;;;25.27;6.30;;;;;;;7.05;47.40;98053.06;8330398;28;20203;-63
2021/03/22 01:04:21;;;;;;;23.73;7.03;;;;;;;7.02;47.40;98058.28;8329643;28;20196;-63
2021/03/22 01:08:26;;;;;;;21.50;6.30;;;;;;;6.90;47.42;98048.34;8330128;28;20216;-62
2021/03/22 01:12:28;;;;;;;23.17;6.17;;;;;;;6.89;47.80;98057.78;8331138;28;20197;-62
2021/03/22 01:16:35;;;;;;;25.53;6.60;;;;;;;6.81;47.68;98049.44;8336145;28;20211;-63
2021/03/22 01:20:40;;;;;;;23.00;6.00;;;;;;;6.83;47.53;98053.66;8335433;28;20185;-63
2021/03/22 01:24:42;;;;;;;21.53;6.27;;;;;;;6.76;47.98;98044.41;8336120;28;20188;-63
2021/03/22 01:28:44;;;;;;;20.20;5.87;;;;;;;6.72;47.99;98045.41;8336106;28;20290;-63
2021/03/22 01:32:47;;;;;;;20.37;5.50;;;;;;;6.65;47.97;98036.16;8335668;28;20204;-63
2021/03/22 01:36:51;;;;;;;24.73;7.17;;;;;;;6.77;47.50;98045.25;8335171;28;20251;-63
2021/03/22 01:41:37;;;;;;;18.43;5.50;;;;;;;6.76;47.47;98044.41;8335205;28;20663;-63
2021/03/22 01:45:39;;;;;;;20.17;5.43;;;;;;;6.68;47.90;98041.19;8321479;28;20199;-63
2021/03/22 01:49:43;;;;;;;24.87;5.87;;;;;;;6.66;47.64;98048.13;8367590;28;20228;-63
2021/03/22 01:53:46;;;;;;;21.77;5.63;;;;;;;6.75;47.48;98049.59;8367486;28;20204;-62
2021/03/22 01:57:48;;;;;;;25.07;6.13;;;;;;;6.52;48.04;98047.66;8367535;28;20210;-63
2021/03/22 02:01:52;;;;;;;26.33;6.30;;;;;;;6.67;48.04;98054.13;8368051;28;20208;-62
2021/03/22 02:05:54;;;;;;;21.17;6.77;;;;;;;6.59;48.48;98042.31;8367456;28;20195;-63
2021/03/22 02:09:58;;;;;;;21.37;5.60;;;;;;;6.64;48.27;98055.03;8366980;28;20210;-63
2021/03/22 02:14:02;;;;;;;26.13;6.47;;;;;;;6.44;48.79;98040.97;8367350;28;20294;-64
2021/03/22 02:18:11;;;;;;;22.33;5.73;;;;;;;6.57;48.39;98056.09;8367403;28;20200;-63
2021/03/22 02:22:38;;;;;;;22.70;6.20;;;;;;;6.53;48.55;98051.91;8367104;28;20185;-63
2021/03/22 02:27:11;;;;;;;23.53;5.90;;;;;;;6.28;49.23;98062.84;8366931;28;20238;-63
2021/03/22 02:31:31;;;;;;;22.53;6.07;;;;;;;6.49;49.19;98064.00;8367422;28;20184;-64
2021/03/22 02:35:38;;;;;;;24.07;6.63;;;;;;;6.52;49.28;98065.66;8366649;28;20184;-63
2021/03/22 02:39:47;;;;;;;21.67;5.57;;;;;;;6.45;49.29;98070.97;8366812;28;20255;-63
2021/03/22 02:44:00;;;;;;;24.23;5.70;;;;;;;6.51;49.39;98071.69;8366579;28;20180;-63
2021/03/22 02:48:03;;;;;;;24.30;6.10;;;;;;;6.44;49.35;98077.00;8365520;28;20216;-62
2021/03/22 02:52:16;;;;;;;26.10;6.03;;;;;;;6.46;49.17;98069.25;8366284;28;20191;-63
2021/03/22 02:56:26;;;;;;;23.17;6.13;;;;;;;6.41;49.50;98071.09;8365633;28;20188;-64
2021/03/22 03:00:30;;;;;;;26.03;6.23;;;;;;;6.38;49.41;98079.72;8366141;28;20207;-63
2021/03/22 03:04:35;;;;;;;20.37;5.80;;;;;;;6.36;49.26;98072.91;8365716;28;20204;-62
2021/03/22 03:08:40;;;;;;;19.50;5.57;;;;;;;6.20;49.81;98082.75;8365282;28;20599;-63
2021/03/22 03:12:42;;;;;;;25.47;6.03;;;;;;;6.18;49.70;98082.78;8365875;28;20207;-63
2021/03/22 03:16:44;;;;;;;21.00;6.07;;;;;;;6.24;49.38;98079.22;8365354;28;20211;-63
2021/03/22 03:20:46;;;;;;;17.40;5.40;;;;;;;6.17;49.84;98082.81;8364838;28;20204;-62
2021/03/22 03:24:50;;;;;;;19.10;5.50;;;;;;;6.08;49.60;98076.19;8365177;28;20503;-62
2021/03/22 03:28:51;;;;;;;23.83;5.90;;;;;;;6.07;49.59;98080.50;8365309;28;20232;-63
2021/03/22 03:32:54;;;;;;;18.80;6.00;;;;;;;6.06;49.64;98088.25;8364593;28;20206;-63
2021/03/22 03:36:56;;;;;;;25.67;6.00;;;;;;;5.94;49.75;98089.38;8363746;28;20210;-63
2021/03/22 03:40:58;;;;;;;24.27;5.87;;;;;;;5.96;50.19;98095.34;8363918;28;20654;-62
2021/03/22 03:45:00;;;;;;;22.70;5.47;;;;;;;5.99;49.96;98090.09;8364718;28;20204;-63
2021/03/22 03:49:02;;;;;;;19.50;5.57;;;;;;;6.05;49.91;98086.56;8363869;28;20317;-62
2021/03/22 03:53:04;;;;;;;19.23;4.83;;;;;;;6.01;49.67;98085.78;8364262;28;20275;-63
2021/03/22 03:57:08;;;;;;;21.33;5.47;;;;;;;5.99;49.98;98086.69;8364234;28;20219;-63
2021/03/22 04:01:10;;;;;;;19.47;5.13;;;;;;;6.01;49.71;98093.50;8363572;28;20203;-63
2021/03/22 04:05:13;;;;;;;24.13;5.97;;;;;;;6.01;49.68;98074.66;8363461;28;20199;-62
2021/03/22 04:09:16;;;;;;;24.47;5.50;;;;;;;5.94;49.83;98085.94;8363988;28;20219;-63
2021/03/22 04:13:19;;;;;;;20.97;5.23;;;;;;;5.99;50.04;98084.13;8363450;28;20645;-62
2021/03/22 04:17:21;;;;;;;22.30;5.40;;;;;;;6.00;50.06;98091.81;8363862;28;20215;-62
2021/03/22 04:21:25;;;;;;;25.40;5.97;;;;;;;6.09;49.96;98090.72;8363876;28;20575;-63
2021/03/22 04:25:27;;;;;;;18.17;4.93;;;;;;;6.01;49.77;98082.38;8363257;28;20224;-62
2021/03/22 04:29:30;;;;;;;20.70;5.50;;;;;;;6.03;49.72;98090.88;8363187;28;20208;-63
2021/03/22 04:33:33;;;;;;;19.83;5.40;;;;;;;5.94;49.75;98089.38;8363592;28;20238;-63
2021/03/22 04:37:35;;;;;;;18.10;5.33;;;;;;;5.85;49.91;98092.16;8363332;28;20247;-63
2021/03/22 04:41:38;;;;;;;18.17;5.00;;;;;;;6.07;49.57;98102.78;8363037;28;20610;-63
2021/03/22 04:45:41;;;;;;;23.03;5.37;;;;;;;6.07;49.44;98097.63;8363042;28;20654;-63
2021/03/22 04:49:43;;;;;;;20.53;5.43;;;;;;;6.06;49.67;98096.81;8367712;28;20630;-63
2021/03/22 04:53:45;;;;;;;20.93;5.27;;;;;;;6.12;49.63;98102.69;8369768;28;20222;-62
2021/03/22 04:57:47;;;;;;;22.13;5.30;;;;;;;6.06;49.64;98094.22;8369316;28;20199;-63
2021/03/22 05:01:51;;;;;;;21.23;5.53;;;;;;;6.05;49.68;98097.69;8369493;28;20631;-63
2021/03/22 05:05:53;;;;;;;19.03;5.27;;;;;;;5.96;49.88;98090.19;8367377;28;20220;-63
2021/03/22 05:09:55;;;;;;;20.10;5.17;;;;;;;6.01;49.76;98092.66;8366572;28;20257;-62
2021/03/22 05:13:57;;;;;;;17.27;5.20;;;;;;;6.09;49.60;98102.75;8366646;28;20232;-63
2021/03/22 05:18:00;;;;;;;23.50;5.53;;;;;;;6.05;50.07;98107.97;8365996;28;20292;-62
2021/03/22 05:22:02;;;;;;;20.37;5.27;;;;;;;5.99;49.83;98115.81;8366205;28;20575;-63
2021/03/22 05:26:05;;;;;;;21.23;5.03;;;;;;;6.04;49.95;98120.88;8365832;28;20223;-63
2021/03/22 05:30:08;;;;;;;20.87;4.80;;;;;;;6.10;50.24;98125.03;8367530;28;20224;-63
2021/03/22 05:34:11;;;;;;;21.50;5.60;;;;;;;6.07;50.29;98125.91;8367665;28;20626;-63
2021/03/22 05:38:14;;;;;;;22.97;5.77;;;;;;;6.14;50.06;98132.63;8368293;28;20233;-64
2021/03/22 05:42:27;;;;;;;22.73;5.70;;;;;;;6.11;50.42;98131.84;8367633;28;20236;-63
2021/03/22 05:46:36;;;;;;;19.77;5.60;;;;;;;6.18;50.22;98125.69;8367761;28;20196;-62
2021/03/22 05:50:44;;;;;;;22.90;6.00;;;;;;;6.21;49.81;98138.47;8368272;28;20192;-63
2021/03/22 05:55:05;;;;;;;18.40;5.60;;;;;;;6.23;49.70;98132.41;8367823;28;20188;-63
2021/03/22 05:59:28;;;;;;;21.80;5.90;;;;;;;6.21;50.27;98135.91;8356797;28;20188;-63
2021/03/22 06:03:37;;;;;;;25.40;6.47;;;;;;;6.28;49.90;98137.41;8349290;28;20191;-63
2021/03/22 06:07:47;;;;;;;25.00;6.07;;;;;;;6.24;50.20;98146.97;8353241;28;20662;-63
2021/03/22 06:11:54;;;;;;;20.47;6.30;;;;;;;6.26;50.36;98160.63;8334097;28;20208;-63
2021/03/22 06:15:59;;;;;;;21.50;7.07;;;;;;;6.42;50.13;98158.53;8345940;28;20215;-63
2021/03/22 06:20:04;;;;;;;26.30;7.60;;;;;;;6.39;50.42;98162.88;8367084;28;20253;-63
2021/03/22 06:24:14;;;;;;;22.10;7.83;;;;;;;6.45;49.90;98165.31;8366688;28;20184;-63
2021/03/22 06:28:19;;;;;;;22.97;8.97;;;;;;;6.51;49.94;98179.75;8364132;28;20227;-63
2021/03/22 06:32:24;;;;;;;24.80;8.43;;;;;;;6.46;50.34;98179.88;8342977;28;20195;-63
2021/03/22 06:36:26;;;;;;;25.60;8.27;;;;;;;6.49;50.42;98192.66;8366020;28;20228;-62
2021/03/22 06:40:33;;;;;;;22.40;7.70;;;;;;;6.48;50.55;98175.53;8365504;28;20226;-62
2021/03/22 06:44:40;;;;;;;27.80;8.13;;;;;;;6.57;49.75;98177.03;8364190;28;20192;-62
2021/03/22 06:48:42;;;;;;;19.53;7.20;;;;;;;6.61;49.97;98194.94;8333257;28;20220;-63
2021/03/22 06:52:47;;;;;;;26.10;7.47;;;;;;;6.64;49.90;98189.72;8332719;28;20283;-63
2021/03/22 06:57:02;;;;;;;25.77;7.20;;;;;;;6.74;49.62;98187.75;8333036;28;20199;-63
2021/03/22 07:01:22;;;;;;;24.70;7.13;;;;;;;6.71;50.26;98190.41;8332425;28;20601;-63
2021/03/22 07:05:34;;;;;;;24.07;7.43;;;;;;;6.78;49.57;98184.22;8332420;28;20196;-62
2021/03/22 07:09:38;;;;;;;20.37;6.33;;;;;;;6.78;49.42;98194.50;8333738;28;20274;-64
2021/03/22 07:13:51;;;;;;;22.83;7.17;;;;;;;6.84;48.88;98198.66;8351530;28;20211;-65
2021/03/22 07:18:01;;;;;;;20.20;6.23;;;;;;;6.91;48.80;98196.75;8364629;28;20203;-65
2021/03/22 07:22:21;;;;;;;20.87;5.93;;;;;;;6.93;48.91;98201.00;8364958;28;20529;-65
2021/03/22 07:26:31;;;;;;;19.93;5.43;;;;;;;6.96;48.80;98206.06;8358567;28;20212;-65
2021/03/22 07:30:39;;;;;;;17.33;5.47;;;;;;;7.00;49.02;98205.09;8336617;28;20196;-65
2021/03/22 07:34:49;;;;;;;18.40;4.47;;;;;;;6.96;48.99;98205.22;8331602;28;20196;-65
2021/03/22 07:39:27;;;;;;;16.27;4.20;;;;;;;7.04;48.54;98211.88;8331769;28;20260;-66
2021/03/22 07:43:43;;;;;;;16.20;4.17;;;;;;;6.88;47.58;98217.47;8331255;28;20189;-65
2021/03/22 07:48:04;;;;;;;20.50;4.50;;;;;;;7.02;48.08;98223.91;8359318;28;20222;-65
2021/03/22 07:52:21;;;;;;;19.40;4.67;;;;;;;7.03;47.65;98225.63;8357299;28;20258;-65
2021/03/22 07:56:26;;;;;;;13.60;3.60;;;;;;;10.07;61.30;98228.91;8331743;28;20492;-67
2021/03/22 08:00:36;;;;;;;14.27;3.57;;;;;;;10.82;44.38;98235.50;8330305;28;20201;-65
2021/03/22 08:04:45;;;;;;;12.97;4.10;;;;;;;9.77;41.42;98232.59;8333365;28;20223;-65
2021/03/22 08:08:54;;;;;;;17.63;4.67;;;;;;;8.67;43.66;98237.25;8351292;28;20495;-65
2021/03/22 08:13:02;;;;;;;14.83;4.27;;;;;;;8.43;44.85;98243.19;8363449;28;20229;-65
2021/03/22 08:17:23;;;;;;;16.73;4.47;;;;;;;8.13;44.80;98235.44;8363860;28;20187;-66
2021/03/22 08:21:33;;;;;;;15.57;4.30;;;;;;;7.95;45.55;98236.84;8363269;28;20199;-65
2021/03/22 08:25:49;;;;;;;15.67;4.00;;;;;;;7.80;45.92;98240.72;8363243;28;20559;-65
2021/03/22 08:29:54;;;;;;;15.27;4.13;;;;;;;8.00;46.31;98253.88;8363249;28;20614;-65
2021/03/22 08:34:01;;;;;;;13.37;3.90;;;;;;;7.90;45.64;98249.03;8363257;28;20203;-65
2021/03/22 08:38:07;;;;;;;9.67;3.60;;;;;;;7.67;46.68;98247.09;8356347;28;20646;-65
2021/03/22 08:42:14;;;;;;;13.90;4.10;;;;;;;7.80;46.29;98251.03;8339796;28;20223;-66
2021/03/22 08:46:25;;;;;;;14.23;4.57;;;;;;;8.43;44.45;98261.25;8344242;28;20471;-65
2021/03/22 08:50:29;;;;;;;17.73;3.93;;;;;;;7.91;45.53;98267.03;8361636;28;20204;-67
2021/03/22 08:54:35;;;;;;;14.60;4.10;;;;;;;7.91;45.67;98267.03;8362092;28;20635;-66
2021/03/22 08:58:40;;;;;;;15.33;5.40;;;;;;;8.13;45.94;98267.28;8357595;28;20571;-66
2021/03/22 09:02:51;;;;;;;17.20;4.20;;;;;;;7.97;46.18;98269.44;8346975;28;20650;-66
2021/03/22 09:07:01;;;;;;;13.97;3.60;;;;;;;8.05;45.69;98270.94;8339800;28;20511;-65
2021/03/22 09:11:17;;;;;;;17.53;3.93;;;;;;;8.11;46.13;98270.75;8351577;28;20195;-66
2021/03/22 09:15:22;;;;;;;13.67;3.50;;;;;;;7.88;46.07;98277.47;8345613;28;20608;-65
2021/03/22 09:19:39;;;;;;;18.23;4.53;;;;;;;7.83;46.10;98277.56;8343816;28;20197;-65
2021/03/22 09:23:54;;;;;;;17.23;7.07;;;;;;;7.91;47.61;98281.69;8336263;28;20639;-65
2021/03/22 09:28:32;;;;;;;13.90;3.83;;;;;;;7.91;46.26;98285.09;8348472;28;20634;-71
2021/03/22 09:32:44;;;;;;;14.07;4.70;;;;;;;8.04;45.91;98290.75;8333045;28;20227;-71
2021/03/22 09:36:48;;;;;;;13.23;4.10;;;;;;;8.10;45.43;98293.16;8352342;28;20223;-72
2021/03/22 09:40:56;;;;;;;14.40;4.80;;;;;;;7.93;46.43;98296.22;8357611;28;20228;-72
2021/03/22 09:45:18;;;;;;;14.03;4.23;;;;;;;7.86;45.93;98289.53;8336217;28;20281;-73
2021/03/22 09:49:27;;;;;;;10.27;3.13;;;;;;;7.97;45.44;98294.38;8350869;28;20227;-71
2021/03/22 09:53:35;;;;;;;13.33;3.37;;;;;;;7.98;45.49;98289.19;8367891;28;20188;-72
2021/03/22 09:57:42;;;;;;;9.90;3.33;;;;;;;8.31;45.61;98299.41;8368316;28;20242;-71
2021/03/22 10:01:45;;;;;;;11.43;3.17;;;;;;;8.21;44.43;98290.25;8367786;28;20206;-71
2021/03/22 10:05:58;;;;;;;11.07;3.00;;;;;;;8.42;44.74;98291.38;8352169;28;20203;-72
2021/03/22 10:10:03;;;;;;;10.90;2.90;;;;;;;8.25;43.66;98298.75;8364772;28;20220;-73
2021/03/22 10:14:06;;;;;;;13.40;3.50;;;;;;;7.89;44.17;98296.34;8352345;28;20191;-72
2021/03/22 10:18:19;;;;;;;12.43;3.10;;;;;;;8.11;44.65;98294.84;8340178;28;20196;-72
2021/03/22 10:22:22;;;;;;;7.40;2.87;;;;;;;8.26;45.69;98303.00;8344575;28;20195;-73
2021/03/22 10:26:28;;;;;;;10.57;2.97;;;;;;;8.14;45.16;98305.06;8347656;28;20231;-72
2021/03/22 10:30:30;;;;;;;15.83;3.47;;;;;;;8.45;44.44;98301.59;8351963;28;20239;-71
2021/03/22 10:34:41;;;;;;;12.23;4.27;;;;;;;8.17;44.69;98301.56;8345691;28;20892;-72
2021/03/22 10:38:43;;;;;;;11.47;3.57;;;;;;;8.22;45.01;98302.25;8345606;28;20211;-72
2021/03/22 10:42:45;;;;;;;12.00;3.40;;;;;;;8.80;44.49;98304.84;8349336;28;20231;-71
2021/03/22 10:46:47;;;;;;;13.80;3.47;;;;;;;8.84;44.09;98309.00;8352078;28;20191;-71
2021/03/22 10:51:00;;;;;;;9.43;3.00;;;;;;;9.25;43.11;98305.97;8340806;28;20698;-72
2021/03/22 10:55:04;;;;;;;11.00;3.10;;;;;;;9.09;44.28;98309.06;8356263;28;20261;-70
2021/03/22 10:59:13;;;;;;;9.80;3.07;;;;;;;8.81;44.67;98311.69;8367193;28;20647;-71
2021/03/22 11:03:19;;;;;;;10.83;3.27;;;;;;;8.99;44.27;98311.09;8349769;28;20185;-72
2021/03/22 11:07:24;;;;;;;10.37;2.93;;;;;;;8.97;44.00;98312.06;8341259;28;20266;-70
2021/03/22 11:11:30;;;;;;;7.03;2.37;;;;;;;9.00;42.08;98304.19;8335812;28;20270;-69
2021/03/22 11:15:35;;;;;;;5.20;2.27;;;;;;;9.28;41.52;98309.28;8334753;28;20192;-70
2021/03/22 11:19:40;;;;;;;10.00;2.60;;;;;;;9.13;40.80;98305.47;8332505;28;20216;-70
2021/03/22 11:23:45;;;;;;;9.10;2.40;;;;;;;9.26;40.88;98312.84;8332550;28;20257;-74
2021/03/22 11:27:57;;;;;;;5.07;2.20;;;;;;;9.05;40.79;98314.38;8333389;28;20737;-75
2021/03/22 11:32:01;;;;;;;6.53;2.23;;;;;;;9.09;41.14;98318.56;8333010;28;20189;-71
2021/03/22 11:36:07;;;;;;;10.20;3.57;;;;;;;9.09;41.38;98316.81;8361821;28;20203;-69
2021/03/22 11:40:17;;;;;;;9.20;3.40;;;;;;;9.25;41.02;98313.72;8336668;28;20228;-69
2021/03/22 11:44:23;;;;;;;8.50;2.20;;;;;;;9.15;40.92;98313.19;8331943;28;20189;-70
2021/03/22 11:48:38;;;;;;;6.30;2.10;;;;;;;9.30;41.02;98315.25;8346766;28;20211;-70
2021/03/22 11:52:40;;;;;;;8.93;2.40;;;;;;;9.13;41.21;98320.97;8365101;28;20614;-67
2021/03/22 11:56:57;;;;;;;8.07;2.70;;;;;;;9.18;41.78;98323.41;8344981;28;20314;-66
2021/03/22 12:01:18;;;;;;;7.17;2.60;;;;;;;8.98;42.88;98317.13;8343878;28;20206;-67
2021/03/22 12:05:38;;;;;;;7.17;2.30;;;;;;;8.84;42.88;98310.75;8363894;28;20206;-66
2021/03/22 12:09:42;;;;;;;7.23;2.63;;;;;;;9.07;42.12;98316.00;8363902;28;20315;-66
2021/03/22 12:13:47;;;;;;;8.50;2.73;;;;;;;9.46;40.96;98289.75;8364377;28;20203;-66
2021/03/22 12:17:54;;;;;;;6.67;2.60;;;;;;;9.49;40.80;98293.94;8363608;28;20188;-67
2021/03/22 12:21:56;;;;;;;6.00;2.93;;;;;;;9.28;40.52;98295.53;8356495;28;20211;-68
2021/03/22 12:26:12;;;;;;;7.57;2.80;;;;;;;9.24;41.03;98274.13;8337309;28;20270;-67
2021/03/22 12:30:16;;;;;;;8.87;4.00;;;;;;;9.20;41.61;98277.69;8363106;28;20246;-68
2021/03/22 12:34:20;;;;;;;10.30;3.20;;;;;;;9.15;42.38;98283.00;8364075;28;20207;-67
2021/03/22 12:38:22;;;;;;;10.03;3.07;;;;;;;9.37;41.74;98282.31;8363948;28;20223;-72
2021/03/22 12:42:26;;;;;;;7.20;2.80;;;;;;;9.47;40.97;98286.25;8364474;28;20278;-68
2021/03/22 12:46:29;;;;;;;6.80;2.30;;;;;;;9.67;41.16;98282.09;8347063;28;20217;-68
2021/03/22 12:50:35;;;;;;;6.30;2.70;;;;;;;9.74;40.72;98281.00;8341868;28;20679;-69
2021/03/22 12:54:37;;;;;;;6.23;2.20;;;;;;;9.86;40.41;98285.75;8346665;28;20270;-68
2021/03/22 12:58:39;;;;;;;7.00;2.97;;;;;;;9.46;40.65;98294.03;8347119;28;20532;-68
2021/03/22 13:02:45;;;;;;;12.23;3.73;;;;;;;9.13;43.26;98292.53;8345465;28;20193;-68
2021/03/22 13:06:47;;;;;;;11.93;4.37;;;;;;;9.08;43.63;98291.88;8347430;28;20188;-66
2021/03/22 13:10:50;;;;;;;8.30;3.23;;;;;;;9.16;43.21;98291.63;8357726;28;20212;-66
2021/03/22 13:14:53;;;;;;;8.20;2.93;;;;;;;9.14;44.22;98291.66;8352767;28;20661;-66
2021/03/22 13:18:56;;;;;;;5.93;2.70;;;;;;;9.32;43.88;98291.94;8366736;28;20214;-70
2021/03/22 13:22:58;;;;;;;7.90;2.80;;;;;;;9.09;43.36;98284.97;8361724;28;20559;-70
2021/03/22 13:27:01;;;;;;;8.70;3.30;;;;;;;9.32;43.59;98294.53;8353695;28;20216;-71
2021/03/22 13:31:03;;;;;;;8.67;3.77;;;;;;;9.33;43.45;98296.22;8352342;28;20631;-68
2021/03/22 13:35:08;;;;;;;5.57;2.97;;;;;;;9.36;43.36;98286.59;8351272;28;20200;-66
2021/03/22 13:39:10;;;;;;;9.33;2.90;;;;;;;9.29;43.81;98297.19;8351092;28;20217;-65
2021/03/22 13:43:13;;;;;;;7.23;2.87;;;;;;;9.01;42.35;98287.81;8351011;28;20192;-65
2021/03/22 13:47:15;;;;;;;7.47;3.10;;;;;;;9.10;42.52;98291.81;8349602;28;20259;-65
2021/03/22 13:51:22;;;;;;;9.77;4.23;;;;;;;9.05;42.09;98291.97;8367972;28;20219;-66
2021/03/22 13:55:24;;;;;;;7.30;3.87;;;;;;;9.17;42.88;98290.72;8339852;28;20291;-66
2021/03/22 13:59:27;;;;;;;9.30;3.10;;;;;;;9.36;42.02;98298.69;8333716;28;20227;-66
2021/03/22 14:03:29;;;;;;;11.03;3.80;;;;;;;9.35;40.99;98290.09;8333930;28;20203;-66
2021/03/22 14:07:32;;;;;;;8.50;3.17;;;;;;;9.58;41.48;98294.47;8333740;28;20204;-66
2021/03/22 14:11:34;;;;;;;11.07;3.77;;;;;;;9.75;41.05;98288.69;8333953;28;20197;-66
2021/03/22 14:15:40;;;;;;;14.23;3.80;;;;;;;9.53;41.59;98295.53;8348171;28;20586;-65
2021/03/22 14:19:42;;;;;;;11.30;3.30;;;;;;;9.54;41.75;98299.81;8343107;28;20196;-65
2021/03/22 14:23:45;;;;;;;8.10;3.10;;;;;;;9.51;41.44;98302.50;8334996;28;20193;-65
2021/03/22 14:27:47;;;;;;;6.47;2.87;;;;;;;9.47;41.76;98306.09;8334159;28;20228;-65
2021/03/22 14:31:49;;;;;;;9.47;2.73;;;;;;;9.29;41.22;98315.28;8334508;28;20196;-65
2021/03/22 14:35:52;;;;;;;7.67;2.70;;;;;;;9.48;41.29;98316.38;8337747;28;20215;-66
2021/03/22 14:39:54;;;;;;;9.90;2.90;;;;;;;9.42;41.43;98326.91;8348441;28;20219;-65
2021/03/22 14:43:57;;;;;;;9.53;3.10;;;;;;;9.56;41.02;98314.38;8359099;28;20223;-64
2021/03/22 14:47:59;;;;;;;10.00;3.20;;;;;;;9.71;41.46;98314.72;8355858;28;20216;-65
2021/03/22 14:52:01;;;;;;;10.50;3.30;;;;;;;9.63;41.53;98309.81;8333215;28;20216;-64
2021/03/22 14:56:08;;;;;;;9.87;3.20;;;;;;;9.68;41.29;98312.25;8365330;28;20195;-64
2021/03/22 15:00:13;;;;;;;9.97;3.67;;;;;;;9.49;40.54;98306.88;8366699;28;20288;-64
2021/03/22 15:04:15;;;;;;;10.93;3.43;;;;;;;9.57;41.78;98316.03;8365829;28;20203;-65
2021/03/22 15:08:17;;;;;;;9.70;3.13;;;;;;;9.54;41.81;98311.00;8366182;28;20224;-66
2021/03/22 15:12:20;;;;;;;7.87;3.40;;;;;;;9.56;42.26;98310.94;8334617;28;20574;-65
2021/03/22 15:16:22;;;;;;;16.83;5.03;;;;;;;9.54;42.66;98308.41;8332792;28;20216;-65
2021/03/22 15:20:28;;;;;;;15.13;6.83;;;;;;;9.59;42.75;98314.28;8353040;28;20566;-65
2021/03/22 15:24:31;;;;;;;14.87;5.73;;;;;;;9.69;42.72;98316.50;8365654;28;20245;-66
2021/03/22 15:28:34;;;;;;;10.50;4.33;;;;;;;9.63;42.49;98316.72;8343464;28;20648;-66
2021/03/22 15:32:37;;;;;;;9.50;4.30;;;;;;;9.62;42.83;98315.06;8361481;28;20525;-66
2021/03/22 15:36:39;;;;;;;9.67;4.40;;;;;;;9.66;43.05;98317.47;8336902;28;20218;-65
2021/03/22 15:40:41;;;;;;;7.43;3.23;;;;;;;9.65;43.57;98320.94;8331869;28;20231;-65
2021/03/22 15:44:43;;;;;;;8.10;3.30;;;;;;;9.56;43.36;98331.63;8349899;28;20220;-65
2021/03/22 15:48:46;;;;;;;8.87;2.80;;;;;;;9.59;43.42;98323.75;8354150;28;20224;-64
2021/03/22 15:52:50;;;;;;;6.70;2.80;;;;;;;9.49;43.86;98335.31;8363935;28;20191;-65
2021/03/22 15:56:51;;;;;;;7.77;3.07;;;;;;;9.53;43.64;98337.72;8364317;28;20279;-65
2021/03/22 16:00:54;;;;;;;8.37;3.47;;;;;;;9.58;43.91;98322.91;8363059;28;20207;-64
2021/03/22 16:04:56;;;;;;;9.27;3.10;;;;;;;9.52;43.84;98332.59;8364479;28;20284;-64
2021/03/22 16:08:58;;;;;;;13.20;5.00;;;;;;;9.46;44.12;98333.69;8363689;28;20235;-64
2021/03/22 16:13:08;;;;;;;20.30;7.90;;;;;;;9.41;44.27;98342.50;8363399;28;20653;-63
2021/03/22 16:17:10;;;;;;;10.83;5.20;;;;;;;9.33;44.76;98337.59;8363193;28;20196;-64
2021/03/22 16:21:13;;;;;;;8.57;4.57;;;;;;;9.30;44.70;98342.84;8363232;28;20215;-64
2021/03/22 16:25:17;;;;;;;16.07;6.27;;;;;;;9.24;44.82;98351.63;8363763;28;20207;-65
2021/03/22 16:29:20;;;;;;;13.27;7.40;;;;;;;9.17;44.99;98345.81;8358492;28;20215;-64
2021/03/22 16:33:26;;;;;;;14.87;5.37;;;;;;;9.32;45.10;98354.81;8346685;28;20208;-63
2021/03/22 16:37:28;;;;;;;7.40;4.30;;;;;;;9.28;44.76;98363.56;8362976;28;20223;-64
2021/03/22 16:41:32;;;;;;;5.37;3.60;;;;;;;9.26;45.13;98357.59;8363465;28;20199;-64
2021/03/22 16:45:35;;;;;;;5.03;2.90;;;;;;;9.37;45.14;98365.84;8369213;28;20199;-66
2021/03/22 16:49:38;;;;;;;10.33;5.40;;;;;;;9.37;45.31;98362.44;8369912;28;20226;-64
2021/03/22 16:53:40;;;;;;;14.13;5.70;;;;;;;9.32;45.61;98365.16;8363095;28;20188;-65
2021/03/22 16:57:43;;;;;;;11.23;5.00;;;;;;;9.38;45.37;98364.09;8354388;28;20192;-65
2021/03/22 17:01:45;;;;;;;8.00;3.53;;;;;;;9.24;45.26;98368.91;8361324;28;20199;-66
2021/03/22 17:05:48;;;;;;;8.67;3.13;;;;;;;9.58;47.48;98376.38;8336330;28;20204;-66
2021/03/22 17:09:50;;;;;;;6.23;3.13;;;;;;;9.41;45.56;98379.53;8337645;28;20208;-66
2021/03/22 17:13:52;;;;;;;6.57;3.03;;;;;;;9.34;45.65;98383.19;8355805;28;20689;-67
2021/03/22 17:17:55;;;;;;;6.97;3.13;;;;;;;9.27;45.85;98398.06;8369445;28;20739;-66
2021/03/22 17:21:59;;;;;;;6.20;3.07;;;;;;;9.25;46.08;98396.41;8364672;28;20203;-66
2021/03/22 17:26:03;;;;;;;13.57;7.30;;;;;;;9.28;45.88;98402.31;8354487;28;20211;-67
2021/03/22 17:30:10;;;;;;;12.13;7.03;;;;;;;9.30;46.24;98397.94;8351943;28;20204;-67
2021/03/22 17:34:12;;;;;;;12.33;8.47;;;;;;;9.28;45.65;98409.25;8352466;28;21509;-68
2021/03/22 17:38:16;;;;;;;11.53;6.37;;;;;;;9.24;45.60;98412.81;8348347;28;20216;-66
2021/03/22 17:42:18;;;;;;;11.23;5.60;;;;;;;9.09;45.88;98414.97;8351025;28;20231;-67
2021/03/22 17:46:20;;;;;;;6.17;3.53;;;;;;;9.09;45.88;98419.31;8350775;28;20287;-67
2021/03/22 17:50:24;;;;;;;10.97;4.83;;;;;;;9.15;46.16;98422.53;8348898;28;20226;-67
2021/03/22 17:54:27;;;;;;;7.33;3.40;;;;;;;9.04;46.31;98428.94;8349421;28;20622;-68
2021/03/22 17:58:29;;;;;;;8.20;3.50;;;;;;;9.10;46.07;98431.31;8350332;28;20196;-68
2021/03/22 18:02:31;;;;;;;5.87;2.73;;;;;;;9.09;46.13;98429.66;8351906;28;20192;-67
2021/03/22 18:06:33;;;;;;;4.70;2.87;;;;;;;9.04;46.75;98434.94;8349713;28;20616;-67
2021/03/22 18:10:41;;;;;;;22.03;14.27;;;;;;;9.06;46.29;98440.91;8347953;28;20227;-68
2021/03/22 18:14:51;;;;;;;16.43;10.23;;;;;;;9.06;46.50;98443.50;8347063;28;20181;-67
2021/03/22 18:18:53;;;;;;;7.57;4.37;;;;;;;8.88;47.01;98447.50;8350361;28;20195;-67
2021/03/22 18:22:55;;;;;;;6.63;3.40;;;;;;;8.86;46.81;98461.34;8353927;28;20209;-67
2021/03/22 18:27:00;;;;;;;8.40;3.97;;;;;;;8.86;46.90;98458.75;8359800;28;20226;-67
2021/03/22 18:31:03;;;;;;;12.50;7.63;;;;;;;8.93;46.76;98466.28;8361440;28;20231;-68
2021/03/22 18:35:06;;;;;;;17.57;9.70;;;;;;;8.89;47.09;98462.09;8358997;28;20616;-67
2021/03/22 18:39:08;;;;;;;17.50;8.77;;;;;;;8.85;47.04;98472.56;8355863;28;20709;-67
2021/03/22 18:43:12;;;;;;;13.47;7.77;;;;;;;8.81;47.12;98471.78;8347865;28;20208;-67
2021/03/22 18:47:14;;;;;;;10.40;6.93;;;;;;;8.71;47.54;98476.38;8338650;28;20207;-69
2021/03/22 18:51:16;;;;;;;11.27;6.50;;;;;;;8.69;47.64;98488.50;8351650;28;20224;-68
2021/03/22 18:55:25;;;;;;;23.10;6.23;;;;;;;11.11;62.13;98496.91;8346976;28;20349;-68
2021/03/22 18:59:30;;;;;;;11.90;5.30;;;;;;;11.78;46.84;98500.34;8336070;28;20200;-67
2021/03/22 19:03:32;;;;;;;16.17;6.40;;;;;;;11.97;42.87;98502.22;8356189;28;20204;-67
2021/03/22 19:07:34;;;;;;;11.25;6.70;;;;;;;11.60;40.67;98498.50;8348442;28;20429;-67
2021/03/22 19:11:37;;;;;;;11.07;6.40;;;;;;;10.16;43.71;98514.06;8351227;28;20278;-66
2021/03/22 19:15:41;;;;;;;11.27;6.63;;;;;;;9.67;44.73;98502.78;8332863;28;20250;-65
2021/03/22 19:19:44;;;;;;;13.07;8.13;;;;;;;9.29;45.61;98503.97;8349060;28;20216;-66
2021/03/22 19:23:46;;;;;;;10.37;7.40;;;;;;;9.19;45.99;98513.75;8349225;28;20200;-64